Sturkie, Arkansas
Current Conditions -  °F | °C
As of 3:53 PM on Tuesday 25 Nov 2014 (Local Time) from KUNO Reporting Station
Clear Clear  
Wind Chill: 41°   Ceiling: Unl
Heat Index: 44°   Visibility: 10mi
Dew Point: 16°   Wind: 6mph
Humidity: 32%   Direction: 310°NW
Pressure: 30.13"   Gusts: NA
Location:  36.46°N, 91.87°W
Report Text: KUNO 252153Z AUTO 31005KT 10SM CLR 07/M09 A3013 RMK AO2 SLP210 T00671089
Loading
Personal Weather Stations






























Interactive Weather Map New forecast layout! Learn more

10-Day Weather Forecast

Advertisements
Track Severe Weather on mobile